Dolph, Arkansas
Current Conditions -  °F | °C
As of 10:53 AM on Friday 19 Dec 2014 (Local Time) from KBPK Reporting Station
Haze Haze  
Wind Chill: 32°   Ceiling: 700
Heat Index: 37°   Visibility: 5mi
Dew Point: 35°   Wind: 7mph
Humidity: 93%   Direction: 100°E
Pressure: 30.26"   Gusts: NA
Location:  36.23°N, 92.11°W
Report Text: KBPK 191653Z AUTO 10006KT 5SM BR OVC007 03/02 A3026 RMK AO2 SLP251 T00280017
Loading
Personal Weather Stations






























Interactive Weather Map New forecast layout! Learn more

10-Day Weather Forecast

Advertisements
Track Severe Weather on mobile